createdAt,value
2018-12-23T00:01:08.891Z,16.60
2018-12-23T00:03:35.591Z,13.57
2018-12-23T00:06:02.260Z,20.60
2018-12-23T00:08:28.861Z,14.10
2018-12-23T00:10:55.434Z,16.40
2018-12-23T00:13:22.077Z,14.43
2018-12-23T00:15:48.746Z,16.80
2018-12-23T00:18:15.398Z,15.60
2018-12-23T00:20:41.983Z,15.60
2018-12-23T00:23:08.668Z,17.63
2018-12-23T00:25:35.292Z,17.10
2018-12-23T00:28:01.893Z,14.17
2018-12-23T00:30:28.637Z,19.97
2018-12-23T00:32:55.213Z,21.07
2018-12-23T00:35:21.791Z,17.50
2018-12-23T00:37:49.526Z,18.17
2018-12-23T00:40:16.413Z,15.40
2018-12-23T00:42:43.607Z,19.80
2018-12-23T00:45:10.176Z,21.03
2018-12-23T00:47:37.652Z,13.13
2018-12-23T00:50:04.979Z,21.90
2018-12-23T00:52:31.649Z,24.37
2018-12-23T00:54:58.276Z,19.40
2018-12-23T00:57:25.177Z,18.43
2018-12-23T00:59:51.759Z,25.20
2018-12-23T01:02:18.429Z,18.37
2018-12-23T01:04:45.038Z,26.47
2018-12-23T01:07:11.673Z,20.50
2018-12-23T01:09:38.252Z,16.73
2018-12-23T01:12:04.865Z,18.23
2018-12-23T01:14:31.449Z,25.70
2018-12-23T01:16:58.117Z,16.70
2018-12-23T01:19:24.757Z,19.97
2018-12-23T01:21:51.441Z,20.33
2018-12-23T01:24:18.006Z,16.50
2018-12-23T01:26:44.665Z,16.27
2018-12-23T01:29:11.279Z,17.00
2018-12-23T01:31:37.871Z,16.20
2018-12-23T01:34:05.434Z,20.40
2018-12-23T01:36:32.120Z,14.33
2018-12-23T01:38:59.604Z,22.03
2018-12-23T01:41:26.352Z,18.07
2018-12-23T01:43:53.132Z,21.37
2018-12-23T01:46:19.790Z,15.00
2018-12-23T01:48:47.040Z,17.20
2018-12-23T01:51:13.700Z,15.90
2018-12-23T01:53:41.207Z,20.30
2018-12-23T01:56:07.893Z,17.43
2018-12-23T01:58:35.144Z,17.57
2018-12-23T02:01:01.736Z,19.90
2018-12-23T02:03:28.422Z,23.53
2018-12-23T02:05:55.077Z,19.27
2018-12-23T02:08:21.675Z,16.30
2018-12-23T02:10:48.293Z,17.20
2018-12-23T02:13:14.869Z,18.00
2018-12-23T02:15:41.455Z,16.63
2018-12-23T02:18:08.050Z,24.87
2018-12-23T02:20:34.641Z,23.13
2018-12-23T02:23:01.424Z,17.03
2018-12-23T02:25:28.018Z,18.57
2018-12-23T02:27:54.600Z,18.87
2018-12-23T02:30:21.164Z,20.83
2018-12-23T02:32:47.741Z,17.27
2018-12-23T02:35:14.436Z,19.57
2018-12-23T02:37:41.132Z,16.83
2018-12-23T02:40:08.343Z,14.20
2018-12-23T02:42:34.922Z,19.10
2018-12-23T02:45:01.650Z,17.00
2018-12-23T02:47:28.400Z,18.60
2018-12-23T02:49:55.033Z,23.53
2018-12-23T02:52:21.772Z,19.03
2018-12-23T02:54:48.409Z,16.53
2018-12-23T02:57:15.073Z,21.23
2018-12-23T02:59:41.684Z,18.83
2018-12-23T03:02:08.483Z,19.33
2018-12-23T03:04:35.313Z,21.50
2018-12-23T03:07:01.906Z,30.90
2018-12-23T03:09:28.492Z,17.73
2018-12-23T03:11:55.214Z,21.67
2018-12-23T03:14:21.880Z,19.33
2018-12-23T03:16:48.551Z,23.33
2018-12-23T03:19:15.252Z,16.37
2018-12-23T03:21:41.835Z,21.00
2018-12-23T03:24:08.432Z,22.63
2018-12-23T03:26:35.000Z,20.70
2018-12-23T03:29:01.667Z,15.63
2018-12-23T03:31:28.277Z,22.40
2018-12-23T03:33:54.879Z,20.07
2018-12-23T03:36:21.550Z,23.00
2018-12-23T03:38:48.123Z,16.00
2018-12-23T03:41:14.721Z,23.37
2018-12-23T03:43:41.345Z,20.10
2018-12-23T03:46:07.989Z,21.67
2018-12-23T03:48:34.932Z,17.50
2018-12-23T03:51:01.583Z,21.53
2018-12-23T03:53:28.562Z,11.13
2018-12-23T03:55:55.560Z,23.97
2018-12-23T03:58:22.196Z,19.00
2018-12-23T04:00:49.017Z,20.00
2018-12-23T04:03:15.680Z,19.23
2018-12-23T04:05:42.529Z,13.50
2018-12-23T04:08:09.639Z,22.43
2018-12-23T04:10:37.041Z,15.47
2018-12-23T04:13:03.751Z,22.30
2018-12-23T04:15:30.361Z,18.67
2018-12-23T04:17:57.076Z,12.37
2018-12-23T04:20:23.764Z,17.23
2018-12-23T04:22:50.771Z,15.40
2018-12-23T04:25:17.427Z,12.40
2018-12-23T04:27:44.132Z,15.63
2018-12-23T04:30:10.728Z,17.00
2018-12-23T04:32:37.440Z,17.47
2018-12-23T04:35:04.105Z,13.37
2018-12-23T04:37:30.736Z,9.90
2018-12-23T04:39:57.374Z,17.47
2018-12-23T04:42:23.966Z,16.30
2018-12-23T04:44:50.659Z,17.87
2018-12-23T04:47:17.292Z,13.50
2018-12-23T04:49:43.991Z,12.90
2018-12-23T04:52:10.671Z,12.53
2018-12-23T04:54:37.715Z,18.23
2018-12-23T04:57:04.453Z,12.73
2018-12-23T04:59:31.494Z,15.97
2018-12-23T05:01:58.164Z,17.63
2018-12-23T05:04:24.782Z,14.27
2018-12-23T05:06:52.172Z,13.93
2018-12-23T05:09:18.935Z,12.03
2018-12-23T05:11:45.578Z,9.37
2018-12-23T05:14:12.117Z,11.53
2018-12-23T05:16:38.705Z,13.33
2018-12-23T05:19:05.313Z,17.33
2018-12-23T05:21:31.881Z,8.43
2018-12-23T05:23:58.557Z,13.77
2018-12-23T05:26:25.098Z,8.43
2018-12-23T05:28:51.833Z,14.73
2018-12-23T05:31:18.513Z,14.17
2018-12-23T05:33:45.104Z,13.83
2018-12-23T05:36:12.181Z,11.17
2018-12-23T05:38:38.994Z,10.33
2018-12-23T05:41:05.719Z,12.27
2018-12-23T05:43:32.292Z,9.87
2018-12-23T05:45:58.880Z,14.23
2018-12-23T05:48:25.568Z,12.03
2018-12-23T05:50:52.219Z,8.03
2018-12-23T05:53:18.852Z,13.27
2018-12-23T05:55:45.229Z,14.10
2018-12-23T05:58:11.909Z,8.73
2018-12-23T06:00:38.552Z,14.83
2018-12-23T06:03:05.184Z,11.90
2018-12-23T06:05:31.770Z,13.13
2018-12-23T06:07:58.365Z,11.13
2018-12-23T06:10:25.017Z,13.67
2018-12-23T06:12:51.613Z,11.10
2018-12-23T06:15:18.214Z,13.67
2018-12-23T06:17:44.784Z,14.43
2018-12-23T06:20:11.436Z,9.97
2018-12-23T06:22:38.080Z,11.90
2018-12-23T06:25:04.848Z,10.90
2018-12-23T06:27:31.533Z,12.67
2018-12-23T06:29:58.119Z,11.43
2018-12-23T06:32:24.819Z,9.70
2018-12-23T06:34:51.484Z,16.70
2018-12-23T06:37:18.360Z,11.43
2018-12-23T06:39:44.936Z,15.77
2018-12-23T06:42:11.584Z,16.80
2018-12-23T06:44:38.228Z,12.27
2018-12-23T06:47:04.829Z,16.53
2018-12-23T06:49:31.868Z,8.67
2018-12-23T06:51:58.565Z,13.97
2018-12-23T06:54:25.177Z,7.67
2018-12-23T06:56:52.528Z,11.60
2018-12-23T06:59:19.832Z,12.40
2018-12-23T07:01:46.724Z,12.80
2018-12-23T07:04:13.368Z,8.43
2018-12-23T07:06:40.101Z,13.23
2018-12-23T07:09:06.949Z,12.27
2018-12-23T07:11:33.580Z,12.97
2018-12-23T07:14:00.249Z,10.20
2018-12-23T07:16:27.632Z,10.37
2018-12-23T07:18:54.280Z,13.67
2018-12-23T07:21:20.853Z,13.73
2018-12-23T07:23:47.429Z,9.80
2018-12-23T07:26:14.028Z,8.77
2018-12-23T07:28:40.656Z,13.07
2018-12-23T07:31:07.961Z,14.23
2018-12-23T07:33:34.647Z,8.90
2018-12-23T07:36:01.457Z,15.40
2018-12-23T07:38:28.001Z,11.20
2018-12-23T07:40:54.824Z,17.00
2018-12-23T07:43:21.405Z,15.30
2018-12-23T07:45:48.034Z,8.53
2018-12-23T07:48:14.676Z,11.13
2018-12-23T07:50:41.306Z,9.77
2018-12-23T07:53:07.897Z,15.73
2018-12-23T07:55:34.482Z,11.57
2018-12-23T07:58:01.803Z,17.07
2018-12-23T08:00:28.373Z,10.90
2018-12-23T08:02:54.954Z,8.27
2018-12-23T08:05:22.475Z,14.30
2018-12-23T08:07:49.196Z,11.60
2018-12-23T08:10:15.840Z,6.93
2018-12-23T08:12:42.472Z,13.97
2018-12-23T08:15:09.104Z,11.70
2018-12-23T08:17:35.752Z,10.17
2018-12-23T08:20:02.439Z,11.53
2018-12-23T08:22:29.020Z,16.93
2018-12-23T08:24:57.111Z,10.67
2018-12-23T08:27:24.108Z,8.10
2018-12-23T08:29:50.672Z,13.90
2018-12-23T08:32:17.351Z,10.83
2018-12-23T08:34:43.929Z,9.23
2018-12-23T08:37:10.508Z,15.53
2018-12-23T08:39:37.108Z,13.13
2018-12-23T08:42:03.704Z,8.83
2018-12-23T08:44:30.289Z,12.57
2018-12-23T08:46:57.409Z,8.37
2018-12-23T08:49:23.971Z,12.00
2018-12-23T08:51:50.608Z,14.53
2018-12-23T08:54:17.197Z,11.40
2018-12-23T08:56:43.876Z,12.47
2018-12-23T08:59:10.521Z,11.87
2018-12-23T09:01:37.191Z,16.60
2018-12-23T09:04:03.942Z,16.73
2018-12-23T09:06:30.636Z,11.80
2018-12-23T09:08:57.586Z,17.67
2018-12-23T09:11:24.220Z,10.20
2018-12-23T09:13:50.858Z,11.30
2018-12-23T09:16:18.060Z,12.03
2018-12-23T09:18:44.942Z,11.43
2018-12-23T09:21:11.588Z,11.10
2018-12-23T09:23:38.228Z,11.63
2018-12-23T09:26:04.921Z,10.83
2018-12-23T09:28:31.504Z,11.73
2018-12-23T09:30:58.085Z,13.50
2018-12-23T09:33:24.669Z,7.17
2018-12-23T09:35:51.236Z,8.67
2018-12-23T09:38:17.838Z,14.00
2018-12-23T09:40:44.416Z,16.53
2018-12-23T09:43:10.985Z,9.00
2018-12-23T09:45:37.679Z,7.17
2018-12-23T09:48:04.260Z,9.13
2018-12-23T09:50:30.974Z,12.53
2018-12-23T09:52:57.547Z,7.50
2018-12-23T09:55:24.269Z,8.70
2018-12-23T09:57:50.840Z,8.97
2018-12-23T10:00:17.766Z,9.17
2018-12-23T10:02:44.487Z,11.70
2018-12-23T10:05:11.087Z,9.67
2018-12-23T10:07:37.676Z,12.87
2018-12-23T10:10:05.317Z,9.17
2018-12-23T10:12:31.932Z,10.10
2018-12-23T10:14:58.505Z,9.30
2018-12-23T10:17:25.128Z,9.40
2018-12-23T10:19:51.704Z,7.97
2018-12-23T10:22:18.301Z,8.87
2018-12-23T10:24:44.897Z,12.57
2018-12-23T10:27:11.478Z,10.27
2018-12-23T10:29:38.060Z,8.50
2018-12-23T10:32:04.689Z,9.90
2018-12-23T10:34:33.181Z,10.50
2018-12-23T10:37:00.051Z,9.67
2018-12-23T10:39:26.612Z,6.40
2018-12-23T10:41:53.289Z,13.23
2018-12-23T10:44:19.859Z,7.30
2018-12-23T10:46:46.587Z,6.03
2018-12-23T10:49:13.164Z,12.33
2018-12-23T10:51:39.754Z,10.73
2018-12-23T10:54:06.412Z,9.83
2018-12-23T10:56:33.128Z,8.77
2018-12-23T10:58:59.708Z,15.60
2018-12-23T11:01:26.334Z,7.77
2018-12-23T11:03:52.905Z,11.20
2018-12-23T11:06:19.472Z,7.77
2018-12-23T11:08:46.064Z,7.77
2018-12-23T11:11:12.652Z,12.13
2018-12-23T11:13:39.325Z,7.13
2018-12-23T11:16:06.015Z,13.37
2018-12-23T11:18:32.601Z,14.83
2018-12-23T11:20:59.260Z,15.77
2018-12-23T11:23:25.872Z,9.73
2018-12-23T11:25:52.460Z,13.30
2018-12-23T11:28:19.052Z,12.80
2018-12-23T11:30:45.626Z,13.47
2018-12-23T11:33:12.204Z,6.00
2018-12-23T11:35:39.007Z,9.90
2018-12-23T11:38:05.613Z,16.80
2018-12-23T11:40:32.207Z,11.47
2018-12-23T11:42:58.785Z,15.20
2018-12-23T11:45:25.359Z,12.57
2018-12-23T11:47:52.025Z,14.87
2018-12-23T11:50:18.625Z,9.73
2018-12-23T11:52:45.228Z,11.90
2018-12-23T11:55:11.800Z,15.17
2018-12-23T11:57:38.374Z,13.83
2018-12-23T12:00:05.056Z,12.40
2018-12-23T12:02:31.744Z,12.37
2018-12-23T12:04:58.327Z,9.47
2018-12-23T12:07:24.930Z,14.33
2018-12-23T12:09:51.512Z,9.20
2018-12-23T12:12:18.086Z,12.17
2018-12-23T12:14:44.672Z,13.17
2018-12-23T12:17:11.307Z,12.77
2018-12-23T12:19:37.867Z,9.03
2018-12-23T12:22:04.522Z,11.33
2018-12-23T12:24:31.089Z,11.40
2018-12-23T12:26:57.766Z,12.27
2018-12-23T12:29:24.411Z,11.90
2018-12-23T12:31:51.002Z,14.50
2018-12-23T12:34:17.568Z,9.60
2018-12-23T12:36:44.252Z,14.53
2018-12-23T12:39:10.813Z,15.90
2018-12-23T12:41:37.392Z,16.27
2018-12-23T12:44:04.004Z,17.20
2018-12-23T12:46:30.580Z,14.40
2018-12-23T12:48:57.278Z,14.13
2018-12-23T12:51:23.865Z,13.87
2018-12-23T12:53:50.436Z,11.57
2018-12-23T12:56:17.054Z,11.30
2018-12-23T12:58:43.629Z,13.10
2018-12-23T13:01:10.844Z,14.77
2018-12-23T13:03:37.644Z,13.13
2018-12-23T13:06:04.227Z,16.83
2018-12-23T13:08:30.820Z,14.07
2018-12-23T13:10:57.389Z,12.97
2018-12-23T13:13:23.983Z,13.40
2018-12-23T13:15:50.577Z,11.10
2018-12-23T13:18:17.148Z,12.60
2018-12-23T13:20:43.765Z,13.07
2018-12-23T13:23:10.340Z,10.13
2018-12-23T13:25:36.920Z,15.27
2018-12-23T13:28:03.516Z,9.50
2018-12-23T13:30:30.141Z,13.70
2018-12-23T13:32:56.736Z,52.23
2018-12-23T13:35:23.350Z,11.37
2018-12-23T13:37:49.953Z,15.07
2018-12-23T13:40:21.337Z,15.70
2018-12-23T13:46:36.218Z,10.90
2018-12-23T13:52:16.409Z,19.70
2018-12-23T13:55:03.059Z,15.87
2018-12-23T13:57:49.722Z,17.40
2018-12-23T14:00:36.374Z,19.50
2018-12-23T14:03:23.069Z,15.50
2018-12-23T14:06:09.721Z,20.10
2018-12-23T14:11:49.873Z,19.83
2018-12-23T14:14:17.213Z,14.00
2018-12-23T14:16:44.529Z,15.10
2018-12-23T14:19:12.151Z,14.60
2018-12-23T14:21:39.811Z,16.77
2018-12-23T14:24:07.142Z,18.50
2018-12-23T14:26:34.478Z,18.37
2018-12-23T14:29:01.789Z,20.47
2018-12-23T14:31:29.100Z,19.43
2018-12-23T14:33:56.425Z,15.60
2018-12-23T14:36:24.051Z,18.57
2018-12-23T14:38:51.361Z,13.07
2018-12-23T14:41:18.942Z,19.07
2018-12-23T14:43:46.250Z,21.87
2018-12-23T14:46:13.587Z,13.17
2018-12-23T14:48:40.914Z,16.00
2018-12-23T14:51:08.222Z,15.37
2018-12-23T14:53:35.817Z,22.73
2018-12-23T14:56:03.145Z,15.57
2018-12-23T14:58:30.727Z,12.70
2018-12-23T15:00:58.066Z,15.73
2018-12-23T15:03:25.381Z,19.23
2018-12-23T15:05:52.995Z,19.57
2018-12-23T15:08:20.654Z,13.37
2018-12-23T15:10:48.395Z,14.43
2018-12-23T15:13:15.742Z,20.27
2018-12-23T15:15:43.050Z,14.17
2018-12-23T15:18:10.385Z,16.17
2018-12-23T15:20:37.694Z,23.50
2018-12-23T15:23:10.697Z,24.27
2018-12-23T15:25:34.554Z,20.77
2018-12-23T15:28:01.911Z,25.40
2018-12-23T15:30:29.222Z,14.87
2018-12-23T15:32:56.555Z,23.73
2018-12-23T15:35:23.862Z,22.93
2018-12-23T15:37:51.197Z,18.93
2018-12-23T15:40:18.614Z,36.30
2018-12-23T15:42:46.021Z,17.13
2018-12-23T15:45:13.622Z,19.00
2018-12-23T15:47:40.955Z,20.30
2018-12-23T15:50:08.538Z,29.40
2018-12-23T15:52:35.867Z,22.70
2018-12-23T15:55:03.448Z,23.67
2018-12-23T15:57:30.769Z,20.73
2018-12-23T15:59:58.082Z,19.93
2018-12-23T16:02:25.715Z,20.07
2018-12-23T16:04:54.678Z,19.63
2018-12-23T16:07:22.674Z,19.50
2018-12-23T16:09:51.314Z,18.90
2018-12-23T16:12:19.456Z,17.23
2018-12-23T16:14:46.839Z,20.27
2018-12-23T16:17:14.142Z,19.60
2018-12-23T16:19:41.478Z,22.83
2018-12-23T16:22:08.795Z,23.37
2018-12-23T16:24:36.406Z,21.90
2018-12-23T16:27:03.750Z,24.97
2018-12-23T16:29:31.058Z,16.67
2018-12-23T16:31:58.398Z,22.67
2018-12-23T16:34:25.746Z,18.00
2018-12-23T16:36:53.054Z,24.20
2018-12-23T16:39:20.631Z,17.93
2018-12-23T16:41:48.190Z,20.53
2018-12-23T16:44:15.849Z,20.20
2018-12-23T16:46:43.195Z,17.47
2018-12-23T16:49:10.523Z,23.00
2018-12-23T16:51:38.114Z,29.47
2018-12-23T16:54:05.773Z,25.80
2018-12-23T16:56:33.333Z,27.53
2018-12-23T16:59:00.654Z,20.27
2018-12-23T17:01:27.962Z,20.53
2018-12-23T17:03:55.602Z,22.17
2018-12-23T17:06:22.938Z,19.50
2018-12-23T17:08:50.613Z,23.43
2018-12-23T17:11:18.274Z,19.47
2018-12-23T17:13:45.842Z,24.30
2018-12-23T17:16:13.159Z,26.03
2018-12-23T17:18:40.746Z,25.83
2018-12-23T17:21:08.081Z,23.47
2018-12-23T17:23:35.662Z,20.63
2018-12-23T17:26:03.318Z,25.17
2018-12-23T17:28:30.871Z,23.10
2018-12-23T17:30:58.211Z,25.37
2018-12-23T17:33:25.523Z,26.37
2018-12-23T17:35:52.860Z,23.87
2018-12-23T17:38:20.498Z,26.60
2018-12-23T17:40:47.838Z,24.47
2018-12-23T17:43:15.145Z,19.13
2018-12-23T17:45:42.473Z,31.40
2018-12-23T17:48:10.118Z,26.90
2018-12-23T17:50:37.429Z,28.63
2018-12-23T17:53:04.763Z,26.77
2018-12-23T17:55:32.078Z,31.60
2018-12-23T17:57:59.738Z,30.60
2018-12-23T18:00:27.398Z,34.37
2018-12-23T18:02:54.956Z,32.67
2018-12-23T18:05:22.290Z,25.57
2018-12-23T18:07:49.627Z,33.33
2018-12-23T18:10:24.843Z,33.90
2018-12-23T18:12:45.999Z,28.60
2018-12-23T18:15:13.338Z,36.87
2018-12-23T18:17:40.726Z,33.80
2018-12-23T18:20:08.067Z,29.50
2018-12-23T18:22:35.630Z,37.33
2018-12-23T18:25:02.967Z,36.20
2018-12-23T18:27:30.283Z,57.50
2018-12-23T18:29:57.894Z,47.20
2018-12-23T18:32:25.223Z,43.23
2018-12-23T18:34:52.807Z,38.37
2018-12-23T18:37:20.150Z,48.83
2018-12-23T18:39:47.466Z,44.23
2018-12-23T18:42:14.777Z,41.40
2018-12-23T18:44:42.435Z,51.03
2018-12-23T18:47:09.762Z,52.77
2018-12-23T18:49:37.342Z,58.30
2018-12-23T18:52:05.002Z,58.93
2018-12-23T18:54:32.314Z,48.60
2018-12-23T18:59:53.446Z,70.23
2018-12-23T19:02:20.830Z,60.20
2018-12-23T19:04:48.142Z,63.80
2018-12-23T19:07:15.477Z,61.70
2018-12-23T19:09:42.814Z,59.93
2018-12-23T19:12:29.467Z,43.87
2018-12-23T19:15:16.379Z,45.20
2018-12-23T19:26:57.538Z,63.97
2018-12-23T19:29:44.189Z,59.80
2018-12-23T19:32:30.862Z,62.47
2018-12-23T19:35:17.515Z,64.27
2018-12-23T19:38:04.203Z,53.97
2018-12-23T19:40:50.860Z,50.60
2018-12-23T19:43:37.548Z,45.33
2018-12-23T19:46:24.357Z,46.40
2018-12-23T19:52:04.809Z,36.60
2018-12-23T19:57:58.727Z,44.00
2018-12-23T20:00:45.643Z,44.47
2018-12-23T20:03:32.295Z,49.40
2018-12-23T20:06:18.978Z,52.37
2018-12-23T20:09:05.629Z,50.97
2018-12-23T20:11:52.546Z,48.60
2018-12-23T20:14:39.266Z,50.17
2018-12-23T20:20:19.915Z,43.20
2018-12-23T20:26:13.822Z,46.87
2018-12-23T20:29:00.479Z,43.73
2018-12-23T20:31:47.142Z,50.20
2018-12-23T20:34:34.085Z,47.13
2018-12-23T20:37:20.970Z,33.87
2018-12-23T20:40:07.647Z,35.50
2018-12-23T20:51:34.881Z,17.23
2018-12-23T20:57:28.799Z,9.13
2018-12-23T21:00:15.471Z,7.43
2018-12-23T21:03:02.122Z,8.77
2018-12-23T21:05:49.022Z,5.97
2018-12-23T21:11:43.276Z,9.53
2018-12-23T21:14:29.918Z,8.13
2018-12-23T21:17:16.818Z,7.33
2018-12-23T21:20:03.463Z,6.13
2018-12-23T21:22:50.133Z,7.23
2018-12-23T21:28:30.935Z,5.73
2018-12-23T21:31:17.814Z,4.40
2018-12-23T21:34:04.482Z,5.37
2018-12-23T21:39:28.826Z,5.63
2018-12-23T21:42:15.474Z,6.10
2018-12-23T21:47:55.983Z,3.37
2018-12-23T21:50:42.631Z,4.70
2018-12-23T21:53:29.304Z,6.80
2018-12-23T21:56:16.191Z,9.23
2018-12-23T22:07:44.202Z,11.57
2018-12-23T22:10:31.137Z,11.40
2018-12-23T22:16:05.759Z,15.73
2018-12-23T22:18:33.106Z,17.67
2018-12-23T22:21:00.415Z,13.03
2018-12-23T22:23:27.751Z,16.63
2018-12-23T22:25:55.512Z,13.67
2018-12-23T22:28:23.138Z,8.00
2018-12-23T22:30:50.506Z,7.00
2018-12-23T22:33:18.102Z,6.03
2018-12-23T22:35:45.433Z,3.53
2018-12-23T22:38:13.061Z,2.40
2018-12-23T22:40:40.460Z,2.30
2018-12-23T22:43:07.765Z,2.57
2018-12-23T22:45:35.074Z,3.03
2018-12-23T22:48:02.406Z,5.07
2018-12-23T22:50:29.746Z,4.67
2018-12-23T22:52:57.078Z,3.23
2018-12-23T22:55:24.414Z,2.53
2018-12-23T22:57:51.741Z,4.60
2018-12-23T23:03:09.267Z,2.57
2018-12-23T23:05:36.171Z,2.23
2018-12-23T23:08:03.499Z,3.67
2018-12-23T23:10:30.813Z,3.70
2018-12-23T23:12:58.389Z,3.10
2018-12-23T23:15:26.051Z,3.33
2018-12-23T23:17:53.614Z,2.83
2018-12-23T23:20:20.935Z,4.07
2018-12-23T23:22:48.314Z,2.63
2018-12-23T23:25:15.686Z,3.03
2018-12-23T23:27:43.004Z,4.03
2018-12-23T23:30:10.313Z,5.23
2018-12-23T23:32:37.954Z,2.87
2018-12-23T23:35:05.354Z,3.70
2018-12-23T23:37:32.658Z,2.83
2018-12-23T23:40:00.315Z,5.53
2018-12-23T23:42:27.703Z,6.43
2018-12-23T23:44:55.421Z,4.90
2018-12-23T23:47:22.982Z,4.67
2018-12-23T23:49:50.305Z,6.37
2018-12-23T23:52:17.893Z,7.47
2018-12-23T23:54:45.271Z,12.80
2018-12-23T23:57:12.914Z,12.10
2018-12-23T23:59:40.227Z,15.93
